sensor_id;sensor_type;location;lat;lon;timestamp;temperature;humidity
46816;DHT22;32787;53.316;8.670;2023-04-07T00:00:29;3.70;74.70
46816;DHT22;32787;53.316;8.670;2023-04-07T00:02:55;3.70;74.80
46816;DHT22;32787;53.316;8.670;2023-04-07T00:05:21;3.80;74.30
46816;DHT22;32787;53.316;8.670;2023-04-07T00:07:47;3.60;75.30
46816;DHT22;32787;53.316;8.670;2023-04-07T00:10:13;3.50;75.80
46816;DHT22;32787;53.316;8.670;2023-04-07T00:12:38;3.40;76.20
46816;DHT22;32787;53.316;8.670;2023-04-07T00:15:05;3.50;75.70
46816;DHT22;32787;53.316;8.670;2023-04-07T00:17:30;3.40;75.50
46816;DHT22;32787;53.316;8.670;2023-04-07T00:19:56;3.50;75.60
46816;DHT22;32787;53.316;8.670;2023-04-07T00:22:22;3.60;75.10
46816;DHT22;32787;53.316;8.670;2023-04-07T00:24:47;3.60;75.00
46816;DHT22;32787;53.316;8.670;2023-04-07T00:27:13;3.60;74.90
46816;DHT22;32787;53.316;8.670;2023-04-07T00:29:39;3.60;74.90
46816;DHT22;32787;53.316;8.670;2023-04-07T00:32:04;3.50;75.10
46816;DHT22;32787;53.316;8.670;2023-04-07T00:34:30;3.40;75.60
46816;DHT22;32787;53.316;8.670;2023-04-07T00:36:55;3.40;75.60
46816;DHT22;32787;53.316;8.670;2023-04-07T00:39:21;3.40;75.70
46816;DHT22;32787;53.316;8.670;2023-04-07T00:41:47;3.30;76.30
46816;DHT22;32787;53.316;8.670;2023-04-07T00:44:13;3.20;76.40
46816;DHT22;32787;53.316;8.670;2023-04-07T00:46:39;3.20;76.20
46816;DHT22;32787;53.316;8.670;2023-04-07T00:49:05;3.30;76.10
46816;DHT22;32787;53.316;8.670;2023-04-07T00:51:31;3.30;76.30
46816;DHT22;32787;53.316;8.670;2023-04-07T00:53:58;3.20;76.30
46816;DHT22;32787;53.316;8.670;2023-04-07T00:56:24;3.20;76.30
46816;DHT22;32787;53.316;8.670;2023-04-07T00:58:50;3.20;76.60
46816;DHT22;32787;53.316;8.670;2023-04-07T01:01:21;3.10;76.20
46816;DHT22;32787;53.316;8.670;2023-04-07T01:04:11;3.10;76.30
46816;DHT22;32787;53.316;8.670;2023-04-07T01:06:44;3.00;76.40
46816;DHT22;32787;53.316;8.670;2023-04-07T01:09:54;3.10;76.10
46816;DHT22;32787;53.316;8.670;2023-04-07T01:12:38;3.00;76.40
46816;DHT22;32787;53.316;8.670;2023-04-07T01:15:09;2.90;77.30
46816;DHT22;32787;53.316;8.670;2023-04-07T01:17:41;2.80;77.30
46816;DHT22;32787;53.316;8.670;2023-04-07T01:20:11;2.70;77.90
46816;DHT22;32787;53.316;8.670;2023-04-07T01:22:41;2.60;78.30
46816;DHT22;32787;53.316;8.670;2023-04-07T01:31:08;2.60;77.70
46816;DHT22;32787;53.316;8.670;2023-04-07T01:33:36;2.60;78.20
46816;DHT22;32787;53.316;8.670;2023-04-07T01:36:04;2.60;78.20
46816;DHT22;32787;53.316;8.670;2023-04-07T01:38:31;2.60;77.90
46816;DHT22;32787;53.316;8.670;2023-04-07T01:40:57;2.60;77.90
46816;DHT22;32787;53.316;8.670;2023-04-07T01:43:25;2.60;77.80
46816;DHT22;32787;53.316;8.670;2023-04-07T01:45:53;2.60;78.00
46816;DHT22;32787;53.316;8.670;2023-04-07T01:48:20;2.60;78.40
46816;DHT22;32787;53.316;8.670;2023-04-07T01:50:46;2.60;78.50
46816;DHT22;32787;53.316;8.670;2023-04-07T01:53:13;2.60;78.10
46816;DHT22;32787;53.316;8.670;2023-04-07T01:55:41;2.70;77.90
46816;DHT22;32787;53.316;8.670;2023-04-07T01:58:07;2.90;77.90
46816;DHT22;32787;53.316;8.670;2023-04-07T02:00:32;2.90;77.60
46816;DHT22;32787;53.316;8.670;2023-04-07T02:03:04;3.00;77.50
46816;DHT22;32787;53.316;8.670;2023-04-07T02:05:32;2.90;77.40
46816;DHT22;32787;53.316;8.670;2023-04-07T02:08:04;3.00;77.40
46816;DHT22;32787;53.316;8.670;2023-04-07T02:10:34;3.10;77.50
46816;DHT22;32787;53.316;8.670;2023-04-07T02:13:03;3.20;77.80
46816;DHT22;32787;53.316;8.670;2023-04-07T02:15:30;3.30;76.80
46816;DHT22;32787;53.316;8.670;2023-04-07T02:17:57;3.40;76.30
46816;DHT22;32787;53.316;8.670;2023-04-07T02:20:23;3.50;76.40
46816;DHT22;32787;53.316;8.670;2023-04-07T02:22:49;3.40;76.40
46816;DHT22;32787;53.316;8.670;2023-04-07T02:25:24;3.30;76.80
46816;DHT22;32787;53.316;8.670;2023-04-07T02:27:50;3.20;77.00
46816;DHT22;32787;53.316;8.670;2023-04-07T02:30:17;3.10;77.40
46816;DHT22;32787;53.316;8.670;2023-04-07T02:32:43;3.00;77.80
46816;DHT22;32787;53.316;8.670;2023-04-07T02:35:09;3.10;77.40
46816;DHT22;32787;53.316;8.670;2023-04-07T02:37:35;3.10;77.10
46816;DHT22;32787;53.316;8.670;2023-04-07T02:40:01;3.00;77.30
46816;DHT22;32787;53.316;8.670;2023-04-07T02:42:27;3.00;77.20
46816;DHT22;32787;53.316;8.670;2023-04-07T02:44:53;2.90;77.50
46816;DHT22;32787;53.316;8.670;2023-04-07T02:47:18;3.00;76.90
46816;DHT22;32787;53.316;8.670;2023-04-07T02:49:44;3.10;77.10
46816;DHT22;32787;53.316;8.670;2023-04-07T02:52:09;3.00;76.70
46816;DHT22;32787;53.316;8.670;2023-04-07T02:54:35;2.90;77.20
46816;DHT22;32787;53.316;8.670;2023-04-07T02:57:01;2.80;77.30
46816;DHT22;32787;53.316;8.670;2023-04-07T02:59:27;2.70;77.60
46816;DHT22;32787;53.316;8.670;2023-04-07T03:01:52;2.70;77.90
46816;DHT22;32787;53.316;8.670;2023-04-07T03:04:18;2.50;78.30
46816;DHT22;32787;53.316;8.670;2023-04-07T03:06:43;2.40;78.40
46816;DHT22;32787;53.316;8.670;2023-04-07T03:09:09;2.60;78.10
46816;DHT22;32787;53.316;8.670;2023-04-07T03:11:35;2.50;78.20
46816;DHT22;32787;53.316;8.670;2023-04-07T03:14:00;2.40;78.40
46816;DHT22;32787;53.316;8.670;2023-04-07T03:16:26;2.50;78.40
46816;DHT22;32787;53.316;8.670;2023-04-07T03:18:51;2.50;78.30
46816;DHT22;32787;53.316;8.670;2023-04-07T03:21:17;2.40;78.50
46816;DHT22;32787;53.316;8.670;2023-04-07T03:23:43;2.30;78.90
46816;DHT22;32787;53.316;8.670;2023-04-07T03:26:08;2.40;78.00
46816;DHT22;32787;53.316;8.670;2023-04-07T03:28:34;2.40;78.40
46816;DHT22;32787;53.316;8.670;2023-04-07T03:30:59;2.20;78.90
46816;DHT22;32787;53.316;8.670;2023-04-07T03:33:25;2.20;78.90
46816;DHT22;32787;53.316;8.670;2023-04-07T03:35:50;2.30;78.70
46816;DHT22;32787;53.316;8.670;2023-04-07T03:38:16;2.10;79.10
46816;DHT22;32787;53.316;8.670;2023-04-07T03:40:41;2.00;79.40
46816;DHT22;32787;53.316;8.670;2023-04-07T03:43:07;2.00;79.30
46816;DHT22;32787;53.316;8.670;2023-04-07T03:45:37;2.00;79.50
46816;DHT22;32787;53.316;8.670;2023-04-07T03:48:03;2.00;79.40
46816;DHT22;32787;53.316;8.670;2023-04-07T03:50:28;1.90;79.90
46816;DHT22;32787;53.316;8.670;2023-04-07T03:52:54;1.90;79.60
46816;DHT22;32787;53.316;8.670;2023-04-07T03:55:19;2.10;79.80
46816;DHT22;32787;53.316;8.670;2023-04-07T03:57:45;2.10;79.10
46816;DHT22;32787;53.316;8.670;2023-04-07T04:00:11;2.10;78.90
46816;DHT22;32787;53.316;8.670;2023-04-07T04:02:37;2.00;79.20
46816;DHT22;32787;53.316;8.670;2023-04-07T04:05:03;1.90;79.60
46816;DHT22;32787;53.316;8.670;2023-04-07T04:07:29;2.00;79.60
46816;DHT22;32787;53.316;8.670;2023-04-07T04:09:55;2.00;79.10
46816;DHT22;32787;53.316;8.670;2023-04-07T04:12:21;2.00;79.10
46816;DHT22;32787;53.316;8.670;2023-04-07T04:14:47;1.90;79.40
46816;DHT22;32787;53.316;8.670;2023-04-07T04:17:12;1.90;79.20
46816;DHT22;32787;53.316;8.670;2023-04-07T04:19:38;2.10;78.80
46816;DHT22;32787;53.316;8.670;2023-04-07T04:22:03;2.00;78.60
46816;DHT22;32787;53.316;8.670;2023-04-07T04:24:29;2.10;79.10
46816;DHT22;32787;53.316;8.670;2023-04-07T04:26:54;2.20;78.60
46816;DHT22;32787;53.316;8.670;2023-04-07T04:29:21;2.20;78.00
46816;DHT22;32787;53.316;8.670;2023-04-07T04:31:46;2.30;78.10
46816;DHT22;32787;53.316;8.670;2023-04-07T04:34:12;2.30;77.60
46816;DHT22;32787;53.316;8.670;2023-04-07T04:36:38;2.20;77.80
46816;DHT22;32787;53.316;8.670;2023-04-07T04:39:05;2.10;78.30
46816;DHT22;32787;53.316;8.670;2023-04-07T04:41:30;2.10;78.50
46816;DHT22;32787;53.316;8.670;2023-04-07T04:43:56;2.00;78.50
46816;DHT22;32787;53.316;8.670;2023-04-07T04:46:23;2.00;78.60
46816;DHT22;32787;53.316;8.670;2023-04-07T04:48:49;2.10;78.50
46816;DHT22;32787;53.316;8.670;2023-04-07T04:51:16;2.10;78.10
46816;DHT22;32787;53.316;8.670;2023-04-07T04:53:41;2.20;78.00
46816;DHT22;32787;53.316;8.670;2023-04-07T04:56:07;2.10;78.60
46816;DHT22;32787;53.316;8.670;2023-04-07T04:58:33;2.10;78.20
46816;DHT22;32787;53.316;8.670;2023-04-07T05:00:59;2.20;78.10
46816;DHT22;32787;53.316;8.670;2023-04-07T05:03:28;2.20;78.10
46816;DHT22;32787;53.316;8.670;2023-04-07T05:05:54;2.20;77.60
46816;DHT22;32787;53.316;8.670;2023-04-07T05:08:20;2.30;77.60
46816;DHT22;32787;53.316;8.670;2023-04-07T05:10:45;2.40;77.10
46816;DHT22;32787;53.316;8.670;2023-04-07T05:13:11;2.40;76.50
46816;DHT22;32787;53.316;8.670;2023-04-07T05:15:37;2.60;76.30
46816;DHT22;32787;53.316;8.670;2023-04-07T05:18:02;2.50;76.80
46816;DHT22;32787;53.316;8.670;2023-04-07T05:20:28;2.50;76.50
46816;DHT22;32787;53.316;8.670;2023-04-07T05:22:54;2.50;77.30
46816;DHT22;32787;53.316;8.670;2023-04-07T05:25:20;2.40;77.30
46816;DHT22;32787;53.316;8.670;2023-04-07T05:27:45;2.50;77.60
46816;DHT22;32787;53.316;8.670;2023-04-07T05:30:11;2.60;76.60
46816;DHT22;32787;53.316;8.670;2023-04-07T05:32:37;2.60;76.80
46816;DHT22;32787;53.316;8.670;2023-04-07T05:35:03;2.80;75.30
46816;DHT22;32787;53.316;8.670;2023-04-07T05:37:28;3.00;74.40
46816;DHT22;32787;53.316;8.670;2023-04-07T05:39:54;3.10;74.40
46816;DHT22;32787;53.316;8.670;2023-04-07T05:42:19;3.20;73.80
46816;DHT22;32787;53.316;8.670;2023-04-07T05:44:45;3.30;73.30
46816;DHT22;32787;53.316;8.670;2023-04-07T05:47:11;3.20;74.00
46816;DHT22;32787;53.316;8.670;2023-04-07T05:49:36;3.20;73.90
46816;DHT22;32787;53.316;8.670;2023-04-07T05:52:02;3.40;72.90
46816;DHT22;32787;53.316;8.670;2023-04-07T05:54:30;3.40;72.90
46816;DHT22;32787;53.316;8.670;2023-04-07T05:56:56;3.40;72.80
46816;DHT22;32787;53.316;8.670;2023-04-07T05:59:21;3.50;72.30
46816;DHT22;32787;53.316;8.670;2023-04-07T06:01:48;3.60;72.20
46816;DHT22;32787;53.316;8.670;2023-04-07T06:04:13;3.60;71.50
46816;DHT22;32787;53.316;8.670;2023-04-07T06:06:39;3.60;71.80
46816;DHT22;32787;53.316;8.670;2023-04-07T06:09:04;3.70;71.00
46816;DHT22;32787;53.316;8.670;2023-04-07T06:11:30;3.70;71.50
46816;DHT22;32787;53.316;8.670;2023-04-07T06:13:56;3.70;71.00
46816;DHT22;32787;53.316;8.670;2023-04-07T06:16:21;3.80;70.80
46816;DHT22;32787;53.316;8.670;2023-04-07T06:18:47;3.90;71.60
46816;DHT22;32787;53.316;8.670;2023-04-07T06:21:12;3.90;70.50
46816;DHT22;32787;53.316;8.670;2023-04-07T06:23:38;4.00;70.60
46816;DHT22;32787;53.316;8.670;2023-04-07T06:26:04;4.00;69.90
46816;DHT22;32787;53.316;8.670;2023-04-07T06:28:29;4.10;70.70
46816;DHT22;32787;53.316;8.670;2023-04-07T06:30:55;4.10;70.20
46816;DHT22;32787;53.316;8.670;2023-04-07T06:33:21;4.30;69.50
46816;DHT22;32787;53.316;8.670;2023-04-07T06:35:50;4.30;69.70
46816;DHT22;32787;53.316;8.670;2023-04-07T06:38:16;4.40;68.80
46816;DHT22;32787;53.316;8.670;2023-04-07T06:40:42;4.50;68.10
46816;DHT22;32787;53.316;8.670;2023-04-07T06:43:07;4.60;68.90
46816;DHT22;32787;53.316;8.670;2023-04-07T06:45:33;4.70;67.60
46816;DHT22;32787;53.316;8.670;2023-04-07T06:47:58;4.80;68.40
46816;DHT22;32787;53.316;8.670;2023-04-07T06:50:24;4.80;68.30
46816;DHT22;32787;53.316;8.670;2023-04-07T06:52:49;4.90;68.00
46816;DHT22;32787;53.316;8.670;2023-04-07T06:55:15;5.10;67.50
46816;DHT22;32787;53.316;8.670;2023-04-07T06:57:41;5.30;66.60
46816;DHT22;32787;53.316;8.670;2023-04-07T07:00:07;5.40;65.60
46816;DHT22;32787;53.316;8.670;2023-04-07T07:02:33;5.40;65.70
46816;DHT22;32787;53.316;8.670;2023-04-07T07:04:59;5.40;66.80
46816;DHT22;32787;53.316;8.670;2023-04-07T07:07:25;5.40;67.60
46816;DHT22;32787;53.316;8.670;2023-04-07T07:09:52;5.50;66.90
46816;DHT22;32787;53.316;8.670;2023-04-07T07:12:18;5.60;66.70
46816;DHT22;32787;53.316;8.670;2023-04-07T07:14:43;5.80;67.10
46816;DHT22;32787;53.316;8.670;2023-04-07T07:17:09;5.80;65.80
46816;DHT22;32787;53.316;8.670;2023-04-07T07:19:35;5.90;66.40
46816;DHT22;32787;53.316;8.670;2023-04-07T07:22:00;6.00;66.60
46816;DHT22;32787;53.316;8.670;2023-04-07T07:24:28;6.20;63.80
46816;DHT22;32787;53.316;8.670;2023-04-07T07:26:54;6.30;65.20
46816;DHT22;32787;53.316;8.670;2023-04-07T07:29:21;6.40;64.20
46816;DHT22;32787;53.316;8.670;2023-04-07T07:31:47;6.60;63.80
46816;DHT22;32787;53.316;8.670;2023-04-07T07:34:13;6.90;62.60
46816;DHT22;32787;53.316;8.670;2023-04-07T07:36:39;6.90;63.20
46816;DHT22;32787;53.316;8.670;2023-04-07T07:39:05;7.20;62.20
46816;DHT22;32787;53.316;8.670;2023-04-07T07:41:31;7.70;60.50
46816;DHT22;32787;53.316;8.670;2023-04-07T07:43:56;7.60;59.90
46816;DHT22;32787;53.316;8.670;2023-04-07T07:46:22;7.40;59.60
46816;DHT22;32787;53.316;8.670;2023-04-07T07:48:50;7.60;60.30
46816;DHT22;32787;53.316;8.670;2023-04-07T07:51:16;7.80;59.30
46816;DHT22;32787;53.316;8.670;2023-04-07T07:53:43;7.70;59.90
46816;DHT22;32787;53.316;8.670;2023-04-07T07:56:09;7.70;59.50
46816;DHT22;32787;53.316;8.670;2023-04-07T07:58:35;7.90;59.20
46816;DHT22;32787;53.316;8.670;2023-04-07T08:01:01;8.20;57.20
46816;DHT22;32787;53.316;8.670;2023-04-07T08:03:26;8.30;56.70
46816;DHT22;32787;53.316;8.670;2023-04-07T08:05:52;8.20;56.70
46816;DHT22;32787;53.316;8.670;2023-04-07T08:08:18;8.10;56.40
46816;DHT22;32787;53.316;8.670;2023-04-07T08:10:43;8.10;56.40
46816;DHT22;32787;53.316;8.670;2023-04-07T08:13:09;8.10;56.80
46816;DHT22;32787;53.316;8.670;2023-04-07T08:15:35;8.20;56.90
46816;DHT22;32787;53.316;8.670;2023-04-07T08:18:00;8.40;57.10
46816;DHT22;32787;53.316;8.670;2023-04-07T08:20:29;8.40;54.80
46816;DHT22;32787;53.316;8.670;2023-04-07T08:22:55;8.60;56.20
46816;DHT22;32787;53.316;8.670;2023-04-07T08:25:20;9.10;53.30
46816;DHT22;32787;53.316;8.670;2023-04-07T08:27:46;9.30;53.80
46816;DHT22;32787;53.316;8.670;2023-04-07T08:30:12;9.20;52.80
46816;DHT22;32787;53.316;8.670;2023-04-07T08:32:40;9.10;51.00
46816;DHT22;32787;53.316;8.670;2023-04-07T08:35:06;9.20;52.60
46816;DHT22;32787;53.316;8.670;2023-04-07T08:37:33;9.60;52.40
46816;DHT22;32787;53.316;8.670;2023-04-07T08:39:59;10.00;50.00
46816;DHT22;32787;53.316;8.670;2023-04-07T08:42:28;10.30;48.60
46816;DHT22;32787;53.316;8.670;2023-04-07T08:45:02;10.40;48.20
46816;DHT22;32787;53.316;8.670;2023-04-07T08:47:30;10.90;47.20
46816;DHT22;32787;53.316;8.670;2023-04-07T08:50:00;10.90;47.50
46816;DHT22;32787;53.316;8.670;2023-04-07T08:52:54;10.60;48.10
46816;DHT22;32787;53.316;8.670;2023-04-07T08:55:21;10.20;48.60
46816;DHT22;32787;53.316;8.670;2023-04-07T08:57:47;10.00;48.60
46816;DHT22;32787;53.316;8.670;2023-04-07T09:00:13;10.10;49.10
46816;DHT22;32787;53.316;8.670;2023-04-07T09:02:43;10.10;46.30
46816;DHT22;32787;53.316;8.670;2023-04-07T09:05:10;10.10;47.90
46816;DHT22;32787;53.316;8.670;2023-04-07T09:07:38;10.30;46.50
46816;DHT22;32787;53.316;8.670;2023-04-07T09:10:05;10.40;47.90
46816;DHT22;32787;53.316;8.670;2023-04-07T09:12:32;10.50;45.40
46816;DHT22;32787;53.316;8.670;2023-04-07T09:14:58;10.60;45.20
46816;DHT22;32787;53.316;8.670;2023-04-07T09:17:24;10.40;44.90
46816;DHT22;32787;53.316;8.670;2023-04-07T09:19:52;10.40;45.90
46816;DHT22;32787;53.316;8.670;2023-04-07T09:22:39;10.60;47.00
46816;DHT22;32787;53.316;8.670;2023-04-07T09:25:17;10.80;46.20
46816;DHT22;32787;53.316;8.670;2023-04-07T09:28:03;10.80;46.20
46816;DHT22;32787;53.316;8.670;2023-04-07T09:30:31;10.50;45.40
46816;DHT22;32787;53.316;8.670;2023-04-07T09:32:58;10.50;45.00
46816;DHT22;32787;53.316;8.670;2023-04-07T09:35:23;10.50;45.70
46816;DHT22;32787;53.316;8.670;2023-04-07T09:38:08;10.50;44.70
46816;DHT22;32787;53.316;8.670;2023-04-07T09:40:34;10.60;47.20
46816;DHT22;32787;53.316;8.670;2023-04-07T09:43:02;10.80;46.20
46816;DHT22;32787;53.316;8.670;2023-04-07T09:45:29;10.80;45.90
46816;DHT22;32787;53.316;8.670;2023-04-07T09:47:56;10.80;45.50
46816;DHT22;32787;53.316;8.670;2023-04-07T09:50:37;10.80;44.20
46816;DHT22;32787;53.316;8.670;2023-04-07T09:53:03;10.80;44.90
46816;DHT22;32787;53.316;8.670;2023-04-07T09:55:29;10.80;45.90
46816;DHT22;32787;53.316;8.670;2023-04-07T09:57:55;11.00;44.10
46816;DHT22;32787;53.316;8.670;2023-04-07T10:00:21;10.90;44.60
46816;DHT22;32787;53.316;8.670;2023-04-07T10:02:47;10.90;44.60
46816;DHT22;32787;53.316;8.670;2023-04-07T10:05:13;11.00;44.20
46816;DHT22;32787;53.316;8.670;2023-04-07T10:07:39;11.10;43.50
46816;DHT22;32787;53.316;8.670;2023-04-07T10:10:07;11.10;44.20
46816;DHT22;32787;53.316;8.670;2023-04-07T10:12:39;11.30;44.10
46816;DHT22;32787;53.316;8.670;2023-04-07T10:15:06;11.70;45.20
46816;DHT22;32787;53.316;8.670;2023-04-07T10:17:32;11.80;42.10
46816;DHT22;32787;53.316;8.670;2023-04-07T10:19:58;11.70;41.70
46816;DHT22;32787;53.316;8.670;2023-04-07T10:22:27;11.30;41.30
46816;DHT22;32787;53.316;8.670;2023-04-07T10:24:58;11.40;42.00
46816;DHT22;32787;53.316;8.670;2023-04-07T10:27:41;11.60;42.20
46816;DHT22;32787;53.316;8.670;2023-04-07T10:30:26;11.40;43.70
46816;DHT22;32787;53.316;8.670;2023-04-07T10:32:53;11.40;43.10
46816;DHT22;32787;53.316;8.670;2023-04-07T10:35:20;11.50;44.70
46816;DHT22;32787;53.316;8.670;2023-04-07T10:38:11;11.50;42.10
46816;DHT22;32787;53.316;8.670;2023-04-07T10:40:41;11.40;44.20
46816;DHT22;32787;53.316;8.670;2023-04-07T10:43:07;11.30;42.40
46816;DHT22;32787;53.316;8.670;2023-04-07T10:48:14;11.70;46.00
46816;DHT22;32787;53.316;8.670;2023-04-07T10:50:41;11.80;43.70
46816;DHT22;32787;53.316;8.670;2023-04-07T10:53:13;11.80;42.60
46816;DHT22;32787;53.316;8.670;2023-04-07T10:55:40;11.80;42.60
46816;DHT22;32787;53.316;8.670;2023-04-07T10:58:20;12.00;43.00
46816;DHT22;32787;53.316;8.670;2023-04-07T11:03:36;12.30;42.40
46816;DHT22;32787;53.316;8.670;2023-04-07T11:06:07;12.20;42.80
46816;DHT22;32787;53.316;8.670;2023-04-07T11:08:44;12.10;44.30
46816;DHT22;32787;53.316;8.670;2023-04-07T11:11:13;12.40;42.60
46816;DHT22;32787;53.316;8.670;2023-04-07T11:13:51;12.20;41.90
46816;DHT22;32787;53.316;8.670;2023-04-07T11:16:18;12.20;41.70
46816;DHT22;32787;53.316;8.670;2023-04-07T11:18:45;12.40;40.70
46816;DHT22;32787;53.316;8.670;2023-04-07T11:21:17;13.00;39.90
46816;DHT22;32787;53.316;8.670;2023-04-07T11:23:45;13.30;38.90
46816;DHT22;32787;53.316;8.670;2023-04-07T11:26:13;13.50;38.60
46816;DHT22;32787;53.316;8.670;2023-04-07T11:28:52;13.00;39.50
46816;DHT22;32787;53.316;8.670;2023-04-07T11:31:27;13.20;39.50
46816;DHT22;32787;53.316;8.670;2023-04-07T11:33:55;13.60;39.40
46816;DHT22;32787;53.316;8.670;2023-04-07T11:38:57;13.00;40.00
46816;DHT22;32787;53.316;8.670;2023-04-07T11:41:24;12.80;42.00
46816;DHT22;32787;53.316;8.670;2023-04-07T11:44:09;12.50;42.30
46816;DHT22;32787;53.316;8.670;2023-04-07T11:46:36;12.30;42.40
46816;DHT22;32787;53.316;8.670;2023-04-07T11:49:09;12.50;44.50
46816;DHT22;32787;53.316;8.670;2023-04-07T11:51:35;12.40;42.20
46816;DHT22;32787;53.316;8.670;2023-04-07T11:54:01;12.30;44.20
46816;DHT22;32787;53.316;8.670;2023-04-07T11:56:27;12.30;43.20
46816;DHT22;32787;53.316;8.670;2023-04-07T11:58:55;12.40;43.10
46816;DHT22;32787;53.316;8.670;2023-04-07T12:01:21;12.40;40.90
46816;DHT22;32787;53.316;8.670;2023-04-07T12:04:12;12.40;42.50
46816;DHT22;32787;53.316;8.670;2023-04-07T12:06:39;12.60;42.70
46816;DHT22;32787;53.316;8.670;2023-04-07T12:09:08;12.50;41.20
46816;DHT22;32787;53.316;8.670;2023-04-07T12:11:34;12.30;40.30
46816;DHT22;32787;53.316;8.670;2023-04-07T12:14:01;12.40;44.00
46816;DHT22;32787;53.316;8.670;2023-04-07T12:16:29;12.60;42.30
46816;DHT22;32787;53.316;8.670;2023-04-07T12:18:55;12.40;41.50
46816;DHT22;32787;53.316;8.670;2023-04-07T12:21:22;12.40;42.40
46816;DHT22;32787;53.316;8.670;2023-04-07T12:23:48;12.30;41.70
46816;DHT22;32787;53.316;8.670;2023-04-07T12:26:14;12.20;43.30
46816;DHT22;32787;53.316;8.670;2023-04-07T12:28:39;12.50;42.90
46816;DHT22;32787;53.316;8.670;2023-04-07T12:31:05;12.80;44.90
46816;DHT22;32787;53.316;8.670;2023-04-07T12:33:31;12.90;42.80
46816;DHT22;32787;53.316;8.670;2023-04-07T12:35:57;12.60;41.60
46816;DHT22;32787;53.316;8.670;2023-04-07T12:38:22;12.50;41.10
46816;DHT22;32787;53.316;8.670;2023-04-07T12:40:48;12.50;40.30
46816;DHT22;32787;53.316;8.670;2023-04-07T12:43:14;12.60;41.40
46816;DHT22;32787;53.316;8.670;2023-04-07T12:45:39;12.60;39.40
46816;DHT22;32787;53.316;8.670;2023-04-07T12:48:05;12.50;41.50
46816;DHT22;32787;53.316;8.670;2023-04-07T12:50:31;12.60;39.90
46816;DHT22;32787;53.316;8.670;2023-04-07T12:52:57;12.60;41.10
46816;DHT22;32787;53.316;8.670;2023-04-07T12:55:24;12.80;40.00
46816;DHT22;32787;53.316;8.670;2023-04-07T12:57:50;12.50;40.60
46816;DHT22;32787;53.316;8.670;2023-04-07T13:00:15;12.60;41.40
46816;DHT22;32787;53.316;8.670;2023-04-07T13:02:42;12.70;42.10
46816;DHT22;32787;53.316;8.670;2023-04-07T13:05:08;12.70;40.30
46816;DHT22;32787;53.316;8.670;2023-04-07T13:07:34;12.60;40.80
46816;DHT22;32787;53.316;8.670;2023-04-07T13:10:01;12.60;41.10
46816;DHT22;32787;53.316;8.670;2023-04-07T13:12:27;12.60;40.00
46816;DHT22;32787;53.316;8.670;2023-04-07T13:14:52;12.70;41.70
46816;DHT22;32787;53.316;8.670;2023-04-07T13:17:18;12.80;39.40
46816;DHT22;32787;53.316;8.670;2023-04-07T13:19:44;12.70;40.60
46816;DHT22;32787;53.316;8.670;2023-04-07T13:22:12;12.70;40.50
46816;DHT22;32787;53.316;8.670;2023-04-07T13:24:38;12.90;41.90
46816;DHT22;32787;53.316;8.670;2023-04-07T13:27:03;12.50;38.50
46816;DHT22;32787;53.316;8.670;2023-04-07T13:29:29;12.40;39.10
46816;DHT22;32787;53.316;8.670;2023-04-07T13:32:06;12.40;40.10
46816;DHT22;32787;53.316;8.670;2023-04-07T13:34:33;12.50;41.80
46816;DHT22;32787;53.316;8.670;2023-04-07T13:37:02;12.70;40.60
46816;DHT22;32787;53.316;8.670;2023-04-07T13:39:29;12.70;40.40
46816;DHT22;32787;53.316;8.670;2023-04-07T13:41:55;12.60;37.90
46816;DHT22;32787;53.316;8.670;2023-04-07T13:44:21;12.50;39.70
46816;DHT22;32787;53.316;8.670;2023-04-07T13:46:47;12.60;40.00
46816;DHT22;32787;53.316;8.670;2023-04-07T13:49:13;12.50;38.90
46816;DHT22;32787;53.316;8.670;2023-04-07T13:51:39;12.40;38.40
46816;DHT22;32787;53.316;8.670;2023-04-07T13:54:05;12.50;37.90
46816;DHT22;32787;53.316;8.670;2023-04-07T13:56:31;12.50;38.30
46816;DHT22;32787;53.316;8.670;2023-04-07T13:58:56;12.50;38.70
46816;DHT22;32787;53.316;8.670;2023-04-07T14:01:22;12.60;37.90
46816;DHT22;32787;53.316;8.670;2023-04-07T14:03:48;12.70;39.70
46816;DHT22;32787;53.316;8.670;2023-04-07T14:06:14;12.80;38.50
46816;DHT22;32787;53.316;8.670;2023-04-07T14:08:39;12.60;37.80
46816;DHT22;32787;53.316;8.670;2023-04-07T14:11:05;12.80;38.10
46816;DHT22;32787;53.316;8.670;2023-04-07T14:13:30;13.30;36.40
46816;DHT22;32787;53.316;8.670;2023-04-07T14:15:56;14.40;37.10
46816;DHT22;32787;53.316;8.670;2023-04-07T14:18:22;15.80;33.10
46816;DHT22;32787;53.316;8.670;2023-04-07T14:20:49;16.10;33.20
46816;DHT22;32787;53.316;8.670;2023-04-07T14:23:14;15.90;33.10
46816;DHT22;32787;53.316;8.670;2023-04-07T14:25:40;15.60;33.70
46816;DHT22;32787;53.316;8.670;2023-04-07T14:28:07;16.00;32.60
46816;DHT22;32787;53.316;8.670;2023-04-07T14:30:35;15.90;34.40
46816;DHT22;32787;53.316;8.670;2023-04-07T14:33:03;15.80;33.00
46816;DHT22;32787;53.316;8.670;2023-04-07T14:35:29;15.30;32.90
46816;DHT22;32787;53.316;8.670;2023-04-07T14:37:54;15.70;33.20
46816;DHT22;32787;53.316;8.670;2023-04-07T14:40:20;15.90;32.20
46816;DHT22;32787;53.316;8.670;2023-04-07T14:42:45;16.00;32.40
46816;DHT22;32787;53.316;8.670;2023-04-07T14:45:11;16.20;32.60
46816;DHT22;32787;53.316;8.670;2023-04-07T14:47:37;15.70;32.50
46816;DHT22;32787;53.316;8.670;2023-04-07T14:50:03;15.20;33.10
46816;DHT22;32787;53.316;8.670;2023-04-07T14:52:28;14.30;33.60
46816;DHT22;32787;53.316;8.670;2023-04-07T14:54:54;14.70;34.40
46816;DHT22;32787;53.316;8.670;2023-04-07T14:57:20;14.60;34.80
46816;DHT22;32787;53.316;8.670;2023-04-07T14:59:46;14.10;35.10
46816;DHT22;32787;53.316;8.670;2023-04-07T15:02:12;14.40;34.00
46816;DHT22;32787;53.316;8.670;2023-04-07T15:04:38;14.40;34.50
46816;DHT22;32787;53.316;8.670;2023-04-07T15:07:03;14.70;34.10
46816;DHT22;32787;53.316;8.670;2023-04-07T15:09:29;14.10;34.40
46816;DHT22;32787;53.316;8.670;2023-04-07T15:11:55;13.70;35.10
46816;DHT22;32787;53.316;8.670;2023-04-07T15:14:21;13.50;35.20
46816;DHT22;32787;53.316;8.670;2023-04-07T15:16:47;13.80;35.00
46816;DHT22;32787;53.316;8.670;2023-04-07T15:19:14;14.10;34.70
46816;DHT22;32787;53.316;8.670;2023-04-07T15:21:40;14.30;31.50
46816;DHT22;32787;53.316;8.670;2023-04-07T15:24:06;14.70;32.40
46816;DHT22;32787;53.316;8.670;2023-04-07T15:26:31;14.20;34.10
46816;DHT22;32787;53.316;8.670;2023-04-07T15:28:57;13.80;33.70
46816;DHT22;32787;53.316;8.670;2023-04-07T15:31:23;13.70;34.70
46816;DHT22;32787;53.316;8.670;2023-04-07T15:33:51;13.60;35.40
46816;DHT22;32787;53.316;8.670;2023-04-07T15:36:17;13.50;35.00
46816;DHT22;32787;53.316;8.670;2023-04-07T15:38:43;13.70;32.90
46816;DHT22;32787;53.316;8.670;2023-04-07T15:41:08;13.90;33.30
46816;DHT22;32787;53.316;8.670;2023-04-07T15:43:34;14.10;32.40
46816;DHT22;32787;53.316;8.670;2023-04-07T15:46:01;14.60;33.30
46816;DHT22;32787;53.316;8.670;2023-04-07T15:48:26;14.70;34.00
46816;DHT22;32787;53.316;8.670;2023-04-07T15:50:52;15.10;33.40
46816;DHT22;32787;53.316;8.670;2023-04-07T15:53:18;14.90;33.50